Time;durP1;ratioP1;P1;durP2;ratioP2;P2;SDS_P1;SDS_P2;PMS_P1;PMS_P2;Temp;Humidity;BMP_temperature;BMP_pressure;BME280_temperature;BME280_humidity;BME280_pressure;Samples;Min_cycle;Max_cycle;Signal;HPM_P1;HPM_P2
2023/09/17 00:02:03;;;;;;;13.68;6.35;;;17.90;99.90;;;;;;5060459;28;20045;-76
2023/09/17 00:04:31;;;;;;;12.30;7.00;;;17.90;99.90;;;;;;5054722;28;20044;-76
2023/09/17 00:06:58;;;;;;;9.98;6.03;;;17.90;99.90;;;;;;5054586;28;20048;-76
2023/09/17 00:09:25;;;;;;;12.48;7.40;;;17.80;99.90;;;;;;5060090;28;20235;-76
2023/09/17 00:11:52;;;;;;;10.65;6.65;;;17.80;99.90;;;;;;5061371;28;20766;-76
2023/09/17 00:14:19;;;;;;;11.00;5.70;;;17.80;99.90;;;;;;5057915;28;20395;-76
2023/09/17 00:16:46;;;;;;;12.02;6.57;;;17.80;99.90;;;;;;5055679;28;20041;-76
2023/09/17 00:19:14;;;;;;;10.27;6.65;;;17.80;99.90;;;;;;5065233;28;20033;-76
2023/09/17 00:21:44;;;;;;;10.88;6.85;;;17.80;99.90;;;;;;5063611;28;20048;-76
2023/09/17 00:24:12;;;;;;;11.35;6.15;;;17.70;99.90;;;;;;5065203;28;20044;-76
2023/09/17 00:26:39;;;;;;;10.43;6.35;;;17.70;99.90;;;;;;5065650;28;20138;-76
2023/09/17 00:29:06;;;;;;;9.20;6.07;;;17.70;99.90;;;;;;5061550;28;20041;-76
2023/09/17 00:31:34;;;;;;;10.60;6.47;;;17.70;99.90;;;;;;5042818;28;20080;-76
2023/09/17 00:34:01;;;;;;;8.95;5.85;;;17.70;99.90;;;;;;5046383;28;20381;-76
2023/09/17 00:36:28;;;;;;;12.45;6.40;;;17.60;99.90;;;;;;5055226;28;20048;-76
2023/09/17 00:38:55;;;;;;;10.07;5.85;;;17.60;99.90;;;;;;5058763;28;20060;-76
2023/09/17 00:41:22;;;;;;;10.48;6.50;;;17.60;99.90;;;;;;5044046;28;20514;-76
2023/09/17 00:43:50;;;;;;;8.80;5.10;;;17.60;99.90;;;;;;5046876;28;20135;-76
2023/09/17 00:46:19;;;;;;;9.15;5.20;;;17.60;99.90;;;;;;5055743;28;20155;-76
2023/09/17 00:48:47;;;;;;;9.00;5.80;;;17.60;99.90;;;;;;5058453;28;20132;-76
2023/09/17 00:51:14;;;;;;;10.13;5.70;;;17.50;99.90;;;;;;5055510;28;20051;-76
2023/09/17 00:53:42;;;;;;;8.05;4.60;;;17.50;99.90;;;;;;5060762;28;20068;-76
2023/09/17 00:56:09;;;;;;;8.73;5.32;;;17.60;99.90;;;;;;5057773;28;20040;-76
2023/09/17 00:58:37;;;;;;;10.30;5.90;;;17.60;99.90;;;;;;5054024;28;20055;-76
2023/09/17 01:01:06;;;;;;;21.75;7.38;;;17.50;99.90;;;;;;5064584;28;20093;-76
2023/09/17 01:03:36;;;;;;;10.05;5.43;;;17.50;99.90;;;;;;5056302;28;20069;-76
2023/09/17 01:06:06;;;;;;;9.60;6.20;;;17.40;99.90;;;;;;5061320;28;20041;-76
2023/09/17 01:08:35;;;;;;;11.27;5.63;;;17.40;99.90;;;;;;5055246;28;20101;-76
2023/09/17 01:11:03;;;;;;;9.25;5.78;;;17.40;99.90;;;;;;5047609;28;20045;-76
2023/09/17 01:13:31;;;;;;;8.18;4.90;;;17.40;99.90;;;;;;5074885;28;20080;-76
2023/09/17 01:15:59;;;;;;;7.57;4.82;;;17.40;99.90;;;;;;5063147;28;20191;-76
2023/09/17 01:18:27;;;;;;;8.23;5.13;;;17.50;99.90;;;;;;5047417;28;20411;-76
2023/09/17 01:21:17;;;;;;;9.50;5.43;;;17.40;99.90;;;;;;5059065;28;20063;-76
2023/09/17 01:23:54;;;;;;;10.13;5.47;;;17.40;99.90;;;;;;5046527;28;20048;-76
2023/09/17 01:26:26;;;;;;;10.63;6.05;;;17.30;99.90;;;;;;5069362;28;20041;-77
2023/09/17 01:28:59;;;;;;;9.70;5.40;;;17.30;99.90;;;;;;5064009;28;20159;-76
2023/09/17 01:31:27;;;;;;;9.48;5.35;;;17.30;99.90;;;;;;5055680;28;20491;-76
2023/09/17 01:33:54;;;;;;;8.63;5.20;;;17.30;99.90;;;;;;5043049;28;20041;-76
2023/09/17 01:36:34;;;;;;;9.00;4.80;;;17.30;99.90;;;;;;5057031;28;20098;-76
2023/09/17 01:39:12;;;;;;;8.93;5.70;;;17.30;99.90;;;;;;5050338;28;20136;-77
2023/09/17 01:41:41;;;;;;;9.82;5.32;;;17.30;99.90;;;;;;5058222;28;20123;-77
2023/09/17 01:44:09;;;;;;;9.50;5.07;;;17.30;99.90;;;;;;5066504;28;20087;-76
2023/09/17 01:46:40;;;;;;;8.73;5.05;;;17.20;99.90;;;;;;5068485;28;20454;-76
2023/09/17 01:49:10;;;;;;;8.50;5.05;;;17.20;99.90;;;;;;5060297;28;20052;-77
2023/09/17 01:51:41;;;;;;;9.18;5.05;;;17.20;99.90;;;;;;5066969;28;20044;-77
2023/09/17 01:54:08;;;;;;;9.02;6.30;;;17.20;99.90;;;;;;5062116;28;22711;-77
2023/09/17 01:56:37;;;;;;;9.07;5.70;;;17.10;99.90;;;;;;5046961;28;20073;-77
2023/09/17 01:59:06;;;;;;;7.65;4.80;;;17.10;99.90;;;;;;5061442;28;21005;-77
2023/09/17 02:01:34;;;;;;;8.95;4.88;;;17.10;99.90;;;;;;5061507;28;20117;-76
2023/09/17 02:04:03;;;;;;;8.25;5.10;;;17.10;99.90;;;;;;5058446;28;20049;-76
2023/09/17 02:06:30;;;;;;;8.82;4.93;;;17.10;99.90;;;;;;5057604;28;20122;-77
2023/09/17 02:08:57;;;;;;;9.68;4.82;;;17.10;99.90;;;;;;5066348;28;20049;-76
2023/09/17 02:11:24;;;;;;;9.00;5.25;;;17.10;99.90;;;;;;5058802;28;20071;-76
2023/09/17 02:13:51;;;;;;;8.00;4.53;;;17.10;99.90;;;;;;5064863;28;20131;-77
2023/09/17 02:16:20;;;;;;;8.82;5.18;;;17.10;99.90;;;;;;5062857;28;20049;-76
2023/09/17 02:18:48;;;;;;;9.82;5.32;;;17.10;99.90;;;;;;5065762;28;20048;-76
2023/09/17 02:21:15;;;;;;;8.23;4.70;;;17.10;99.90;;;;;;5065236;28;20057;-76
2023/09/17 02:23:44;;;;;;;11.05;6.57;;;17.10;99.90;;;;;;5065270;28;20048;-76
2023/09/17 02:26:11;;;;;;;12.35;7.38;;;17.00;99.90;;;;;;5061462;28;20041;-76
2023/09/17 02:28:38;;;;;;;15.60;8.73;;;16.90;99.90;;;;;;5048852;28;20052;-76
2023/09/17 02:31:06;;;;;;;11.85;7.20;;;17.00;99.90;;;;;;5061086;28;20041;-76
2023/09/17 02:33:35;;;;;;;12.60;7.47;;;17.00;99.90;;;;;;5050860;28;20037;-77
2023/09/17 02:36:03;;;;;;;12.80;6.90;;;17.00;99.90;;;;;;5061187;28;20056;-76
2023/09/17 02:38:30;;;;;;;11.07;6.65;;;16.90;99.90;;;;;;5060055;28;20064;-77
2023/09/17 02:40:57;;;;;;;10.32;6.20;;;16.90;99.90;;;;;;5048560;28;20473;-77
2023/09/17 02:43:24;;;;;;;10.05;6.75;;;17.00;99.90;;;;;;5059991;28;20064;-76
2023/09/17 02:45:54;;;;;;;12.02;6.10;;;17.00;99.90;;;;;;5051212;28;20067;-77
2023/09/17 02:48:21;;;;;;;11.02;6.78;;;17.00;99.90;;;;;;5058728;28;20086;-77
2023/09/17 02:50:48;;;;;;;10.35;5.30;;;17.00;99.90;;;;;;5066066;28;20513;-77
2023/09/17 02:53:15;;;;;;;11.18;5.40;;;17.00;99.90;;;;;;5057704;28;20064;-77
2023/09/17 02:55:46;;;;;;;7.72;4.93;;;17.00;99.90;;;;;;5046971;28;20049;-77
2023/09/17 02:58:15;;;;;;;10.05;5.88;;;17.00;99.90;;;;;;5054607;28;20140;-77
2023/09/17 03:00:44;;;;;;;10.63;5.72;;;16.90;99.90;;;;;;5046511;28;20067;-77
2023/09/17 03:03:12;;;;;;;10.15;5.70;;;16.90;99.90;;;;;;5064640;28;20122;-77
2023/09/17 03:05:39;;;;;;;7.97;4.38;;;16.90;99.90;;;;;;5050265;28;20049;-77
2023/09/17 03:08:09;;;;;;;8.85;4.85;;;16.90;99.90;;;;;;5052452;28;20036;-77
2023/09/17 03:10:42;;;;;;;8.48;4.68;;;16.80;99.90;;;;;;5067593;28;20516;-77
2023/09/17 03:13:12;;;;;;;8.50;5.30;;;16.90;99.90;;;;;;5066089;28;20099;-77
2023/09/17 03:15:40;;;;;;;10.25;5.32;;;16.80;99.90;;;;;;5061987;28;20156;-77
2023/09/17 03:18:07;;;;;;;9.35;5.38;;;16.80;99.90;;;;;;5041858;28;20055;-76
2023/09/17 03:20:34;;;;;;;7.55;4.63;;;16.80;99.90;;;;;;5051895;28;20052;-76
2023/09/17 03:23:04;;;;;;;8.30;5.15;;;16.80;99.90;;;;;;5040011;28;20128;-76
2023/09/17 03:25:34;;;;;;;8.73;5.13;;;16.80;99.90;;;;;;5047181;28;20059;-76
2023/09/17 03:28:01;;;;;;;8.25;4.65;;;16.80;99.90;;;;;;5063325;28;20102;-77
2023/09/17 03:30:29;;;;;;;8.75;4.43;;;16.80;99.90;;;;;;5063151;28;20037;-77
2023/09/17 03:32:58;;;;;;;8.63;4.90;;;16.80;99.90;;;;;;5054038;28;20040;-77
2023/09/17 03:35:39;;;;;;;9.47;4.97;;;16.70;99.90;;;;;;5061352;28;20060;-77
2023/09/17 03:38:07;;;;;;;10.77;5.57;;;16.70;99.90;;;;;;5059433;28;20049;-77
2023/09/17 03:40:35;;;;;;;9.73;4.97;;;16.70;99.90;;;;;;5058331;28;20430;-77
2023/09/17 03:43:02;;;;;;;7.18;4.60;;;16.70;99.90;;;;;;5061762;28;20060;-77
2023/09/17 03:45:31;;;;;;;7.50;4.10;;;16.70;99.90;;;;;;5062555;28;20051;-77
2023/09/17 03:47:59;;;;;;;8.13;4.03;;;16.70;99.90;;;;;;5046579;28;20549;-77
2023/09/17 03:50:27;;;;;;;9.10;4.50;;;16.70;99.90;;;;;;5052797;28;20063;-77
2023/09/17 03:52:57;;;;;;;9.98;4.55;;;16.60;99.90;;;;;;5065105;28;20139;-77
2023/09/17 03:55:25;;;;;;;8.32;4.07;;;16.70;99.90;;;;;;5072533;28;20553;-77
2023/09/17 03:57:55;;;;;;;8.20;4.75;;;16.70;99.90;;;;;;5072416;28;20048;-77
2023/09/17 04:00:24;;;;;;;9.18;4.88;;;16.60;99.90;;;;;;5055073;28;20065;-77
2023/09/17 04:02:52;;;;;;;12.45;4.93;;;16.60;99.90;;;;;;5043988;28;20069;-77
2023/09/17 04:05:21;;;;;;;8.98;4.70;;;16.60;99.90;;;;;;5040098;28;23020;-77
2023/09/17 04:07:48;;;;;;;7.00;3.95;;;16.60;99.90;;;;;;5062667;28;20049;-77
2023/09/17 04:10:17;;;;;;;6.90;4.57;;;16.50;99.90;;;;;;5061209;28;20126;-77
2023/09/17 04:12:45;;;;;;;7.68;4.43;;;16.50;99.90;;;;;;5056998;28;20499;-77
2023/09/17 04:15:17;;;;;;;8.98;4.88;;;16.60;99.90;;;;;;5057803;28;20078;-77
2023/09/17 04:17:45;;;;;;;;;;;16.50;99.90;;;;;;5056619;28;20129;-77
2023/09/17 04:20:14;;;;;;;6.97;4.68;;;16.60;99.90;;;;;;5038993;28;19921;-77
2023/09/17 04:22:42;;;;;;;6.13;4.07;;;16.50;99.90;;;;;;5060233;28;20044;-77
2023/09/17 04:25:10;;;;;;;7.35;4.30;;;16.60;99.90;;;;;;5045705;28;20083;-77
2023/09/17 04:27:41;;;;;;;7.75;5.25;;;16.50;99.90;;;;;;5056191;28;20072;-77
2023/09/17 04:30:13;;;;;;;7.03;4.85;;;16.50;99.90;;;;;;5043998;28;20053;-77
2023/09/17 04:32:43;;;;;;;8.98;4.75;;;16.50;99.90;;;;;;5052973;28;20059;-77
2023/09/17 04:35:12;;;;;;;9.13;4.95;;;16.50;99.90;;;;;;5057658;28;20116;-77
2023/09/17 04:37:40;;;;;;;7.95;4.80;;;16.40;99.90;;;;;;5068473;28;20075;-77
2023/09/17 04:40:11;;;;;;;9.57;5.20;;;16.50;99.90;;;;;;5054882;28;20127;-77
2023/09/17 04:42:45;;;;;;;8.65;5.13;;;16.40;99.90;;;;;;5045440;28;20061;-77
2023/09/17 04:45:32;;;;;;;9.23;5.40;;;16.50;99.90;;;;;;5061303;28;20147;-77
2023/09/17 04:48:01;;;;;;;10.00;4.57;;;16.50;99.90;;;;;;5044333;28;20041;-77
2023/09/17 04:50:29;;;;;;;7.40;5.20;;;16.50;99.90;;;;;;5035957;28;20124;-77
2023/09/17 04:52:56;;;;;;;8.18;5.18;;;16.50;99.90;;;;;;5055993;28;20040;-77
2023/09/17 04:55:24;;;;;;;10.50;4.90;;;16.50;99.90;;;;;;5044873;28;20052;-77
2023/09/17 04:57:52;;;;;;;8.93;5.00;;;16.50;99.90;;;;;;5061328;28;20502;-77
2023/09/17 05:00:20;;;;;;;9.10;4.68;;;16.40;99.90;;;;;;5067821;28;20715;-77
2023/09/17 05:02:49;;;;;;;8.13;4.95;;;16.50;99.90;;;;;;5045552;28;20055;-77
2023/09/17 05:05:19;;;;;;;9.20;5.80;;;16.50;99.90;;;;;;5058975;28;20502;-77
2023/09/17 05:07:51;;;;;;;8.18;4.60;;;16.50;99.90;;;;;;5057905;28;20036;-77
2023/09/17 05:10:18;;;;;;;8.95;5.80;;;16.50;99.90;;;;;;5043722;28;20132;-77
2023/09/17 05:12:46;;;;;;;9.45;5.25;;;16.50;99.90;;;;;;5046581;28;20080;-77
2023/09/17 05:15:13;;;;;;;10.23;5.72;;;16.50;99.90;;;;;;5069198;28;20044;-77
2023/09/17 05:17:41;;;;;;;9.95;6.05;;;16.50;99.90;;;;;;5067882;28;20040;-76
2023/09/17 05:20:09;;;;;;;9.40;5.20;;;16.50;99.90;;;;;;5053025;28;20056;-77
2023/09/17 05:22:36;;;;;;;10.50;5.93;;;16.50;99.90;;;;;;5061835;28;20048;-77
2023/09/17 05:25:06;;;;;;;10.57;6.43;;;16.50;99.90;;;;;;5071737;28;20139;-77
2023/09/17 05:27:35;;;;;;;10.40;5.90;;;16.50;99.90;;;;;;5058663;28;20127;-77
2023/09/17 05:30:02;;;;;;;9.95;6.03;;;16.60;99.90;;;;;;5073775;28;20049;-77
2023/09/17 05:32:30;;;;;;;10.77;6.25;;;16.60;99.90;;;;;;5064656;28;20146;-77
2023/09/17 05:35:02;;;;;;;9.52;6.10;;;16.60;99.90;;;;;;5058577;28;20037;-77
2023/09/17 05:37:30;;;;;;;12.63;6.68;;;16.60;99.90;;;;;;5049228;28;20076;-77
2023/09/17 05:40:01;;;;;;;12.35;6.10;;;16.60;99.90;;;;;;5061359;28;20055;-77
2023/09/17 05:42:29;;;;;;;13.90;6.43;;;16.60;99.90;;;;;;5055966;28;20052;-76
2023/09/17 05:44:57;;;;;;;12.50;6.65;;;16.70;99.90;;;;;;5075573;28;20053;-77
2023/09/17 05:47:24;;;;;;;11.77;6.72;;;16.60;99.90;;;;;;5048515;28;20045;-77
2023/09/17 05:49:55;;;;;;;9.00;5.50;;;16.70;99.90;;;;;;5066064;28;20068;-77
2023/09/17 05:52:24;;;;;;;;;;;16.70;99.90;;;;;;5063688;28;23510;-77
2023/09/17 05:54:51;;;;;;;12.23;6.53;;;16.70;99.90;;;;;;5058252;28;19935;-77
2023/09/17 05:57:18;;;;;;;11.48;6.40;;;16.80;99.90;;;;;;5041997;28;20139;-77
2023/09/17 05:59:46;;;;;;;12.13;6.75;;;16.80;99.90;;;;;;5052952;28;20057;-77
2023/09/17 06:02:13;;;;;;;12.63;6.72;;;17.00;99.90;;;;;;5058122;28;20135;-78
2023/09/17 06:04:40;;;;;;;13.32;7.40;;;17.00;99.90;;;;;;5054475;28;20053;-78
2023/09/17 06:07:08;;;;;;;9.77;5.65;;;17.10;99.90;;;;;;5067911;28;20047;-78
2023/09/17 06:09:35;;;;;;;12.77;7.07;;;17.20;99.90;;;;;;5069006;28;20105;-78
2023/09/17 06:12:03;;;;;;;13.68;7.40;;;17.20;99.90;;;;;;5056375;28;20045;-77
2023/09/17 06:14:30;;;;;;;13.13;8.07;;;17.30;99.90;;;;;;5067261;28;20110;-77
2023/09/17 06:16:58;;;;;;;11.18;6.82;;;17.40;99.90;;;;;;5046294;28;22634;-77
2023/09/17 06:19:29;;;;;;;12.95;7.03;;;17.50;99.90;;;;;;5069583;28;20048;-77
2023/09/17 06:21:56;;;;;;;13.20;7.23;;;17.60;99.90;;;;;;5057058;28;20766;-77
2023/09/17 06:24:24;;;;;;;14.02;7.30;;;17.70;99.90;;;;;;5062658;28;20091;-77
2023/09/17 06:26:52;;;;;;;11.30;6.70;;;17.80;99.90;;;;;;5042995;28;20047;-78
2023/09/17 06:29:19;;;;;;;11.10;6.75;;;17.70;99.90;;;;;;5042874;28;20402;-77
2023/09/17 06:31:46;;;;;;;12.90;6.80;;;17.60;99.90;;;;;;5063523;28;20048;-77
2023/09/17 06:34:13;;;;;;;14.55;7.03;;;17.60;99.90;;;;;;5043882;28;20045;-77
2023/09/17 06:36:41;;;;;;;13.40;7.38;;;17.80;99.90;;;;;;5040456;28;20134;-77
2023/09/17 06:39:09;;;;;;;12.15;6.65;;;17.90;99.90;;;;;;5065041;28;20077;-77
2023/09/17 06:41:37;;;;;;;13.88;6.90;;;18.00;99.90;;;;;;5058112;28;22983;-77
2023/09/17 06:44:09;;;;;;;11.52;6.72;;;18.10;99.90;;;;;;5062722;28;21031;-77
2023/09/17 06:46:37;;;;;;;10.45;6.68;;;18.20;99.90;;;;;;5062416;28;20049;-77
2023/09/17 06:49:04;;;;;;;14.23;6.70;;;18.40;99.90;;;;;;5062819;28;20098;-77
2023/09/17 06:51:31;;;;;;;12.10;7.72;;;18.50;99.90;;;;;;5060514;28;20392;-78
2023/09/17 06:53:58;;;;;;;11.70;6.70;;;18.50;99.90;;;;;;5058511;28;20051;-77
2023/09/17 06:56:27;;;;;;;11.30;6.68;;;18.50;99.90;;;;;;5046099;28;20060;-77
2023/09/17 06:58:55;;;;;;;12.00;6.95;;;18.70;99.90;;;;;;5054557;28;20191;-77
2023/09/17 07:01:23;;;;;;;12.63;6.95;;;18.60;99.90;;;;;;5057647;28;20029;-77
2023/09/17 07:03:52;;;;;;;10.52;6.90;;;18.40;99.90;;;;;;5060532;28;20063;-77
2023/09/17 07:06:21;;;;;;;11.02;6.55;;;18.40;99.90;;;;;;5044912;28;20426;-77
2023/09/17 07:08:48;;;;;;;11.40;6.63;;;18.60;99.90;;;;;;5055867;28;20075;-77
2023/09/17 07:11:15;;;;;;;11.05;6.50;;;18.90;99.90;;;;;;5053527;28;20183;-77
2023/09/17 07:13:42;;;;;;;10.85;7.15;;;18.80;99.90;;;;;;5059031;28;20127;-77
2023/09/17 07:16:10;;;;;;;13.43;8.13;;;18.90;99.90;;;;;;5061089;28;20119;-78
2023/09/17 07:18:37;;;;;;;11.23;7.20;;;18.90;99.90;;;;;;5057414;28;20102;-77
2023/09/17 07:21:04;;;;;;;11.05;6.78;;;19.10;99.90;;;;;;5058938;28;20131;-77
2023/09/17 07:23:32;;;;;;;13.10;7.40;;;19.20;99.90;;;;;;5063362;28;20048;-77
2023/09/17 07:25:59;;;;;;;13.20;7.82;;;19.10;99.90;;;;;;5062049;28;20130;-76
2023/09/17 07:28:27;;;;;;;12.95;7.90;;;19.10;99.90;;;;;;5057089;28;21352;-77
2023/09/17 07:30:56;;;;;;;13.98;8.00;;;19.20;99.90;;;;;;5055319;28;20032;-77
2023/09/17 07:33:24;;;;;;;16.27;8.35;;;19.30;99.90;;;;;;5052289;28;20033;-77
2023/09/17 07:35:52;;;;;;;14.50;9.07;;;19.40;99.90;;;;;;5055276;28;20090;-76
2023/09/17 07:38:19;;;;;;;13.80;8.35;;;19.30;99.90;;;;;;5030211;28;20048;-76
2023/09/17 07:40:48;;;;;;;13.60;9.02;;;19.40;99.90;;;;;;5070263;28;20052;-77
2023/09/17 07:43:15;;;;;;;14.35;8.70;;;19.50;99.90;;;;;;5063098;28;20051;-76
2023/09/17 07:45:42;;;;;;;12.65;8.40;;;19.60;99.90;;;;;;5055833;28;20048;-77
2023/09/17 07:48:10;;;;;;;14.73;9.23;;;19.80;99.90;;;;;;5053259;28;20131;-77
2023/09/17 07:50:37;;;;;;;17.77;9.50;;;19.80;99.90;;;;;;5071732;28;20163;-77
2023/09/17 07:53:05;;;;;;;15.73;10.15;;;19.90;99.90;;;;;;5056544;28;20067;-77
2023/09/17 07:55:32;;;;;;;13.50;8.80;;;20.10;99.90;;;;;;5053821;28;20121;-79
2023/09/17 07:57:59;;;;;;;16.30;9.50;;;20.10;99.90;;;;;;5043305;28;20049;-78
2023/09/17 08:00:26;;;;;;;16.02;9.35;;;20.10;99.90;;;;;;5054067;28;20073;-77
2023/09/17 08:02:53;;;;;;;15.82;9.65;;;20.00;99.90;;;;;;5053565;28;20136;-77
2023/09/17 08:05:21;;;;;;;16.52;10.75;;;20.00;99.90;;;;;;5046609;28;20076;-77
2023/09/17 08:07:48;;;;;;;17.13;9.88;;;20.10;99.90;;;;;;5062908;28;20500;-77
2023/09/17 08:10:15;;;;;;;16.13;10.23;;;20.10;99.90;;;;;;5057770;28;22810;-77
2023/09/17 08:12:42;;;;;;;20.05;11.80;;;20.20;99.90;;;;;;5058702;28;20048;-77
2023/09/17 08:15:09;;;;;;;20.65;11.40;;;20.50;99.90;;;;;;5060397;28;21289;-77
2023/09/17 08:17:37;;;;;;;17.77;11.07;;;20.70;99.90;;;;;;5061636;28;20053;-77
2023/09/17 08:20:09;;;;;;;18.38;11.43;;;20.90;99.90;;;;;;5062041;28;20052;-78
2023/09/17 08:22:36;;;;;;;;;;;21.10;99.90;;;;;;5053909;28;20120;-78
2023/09/17 08:25:06;;;;;;;21.75;11.60;;;21.20;99.90;;;;;;5037870;28;19928;-77
2023/09/17 08:27:33;;;;;;;17.77;11.43;;;21.20;99.90;;;;;;5059375;28;20045;-77
2023/09/17 08:30:06;;;;;;;19.83;10.70;;;21.10;99.90;;;;;;5056157;28;21087;-80
2023/09/17 08:32:33;;;;;;;20.55;11.45;;;21.20;99.90;;;;;;5053718;28;20072;-79
2023/09/17 08:35:01;;;;;;;19.05;11.80;;;21.30;99.90;;;;;;5064124;28;22496;-77
2023/09/17 08:37:28;;;;;;;22.90;12.52;;;21.30;99.90;;;;;;5051791;28;20056;-78
2023/09/17 08:39:55;;;;;;;18.77;11.35;;;21.40;99.90;;;;;;5071844;28;20048;-77
2023/09/17 08:42:26;;;;;;;19.00;12.43;;;21.60;99.90;;;;;;5057376;28;21081;-77
2023/09/17 08:44:56;;;;;;;19.25;11.70;;;21.90;99.90;;;;;;5059500;28;20122;-79
2023/09/17 08:47:24;;;;;;;21.75;13.80;;;22.00;99.90;;;;;;5061296;28;20064;-78
2023/09/17 08:49:51;;;;;;;19.13;11.27;;;22.20;99.90;;;;;;5059340;28;20041;-80
2023/09/17 08:52:19;;;;;;;17.50;10.77;;;22.10;99.90;;;;;;5059606;28;22781;-80
2023/09/17 08:54:49;;;;;;;17.13;10.65;;;22.30;99.90;;;;;;5065166;28;20144;-80
2023/09/17 08:57:22;;;;;;;16.10;11.13;;;22.40;99.90;;;;;;5060248;28;20044;-78
2023/09/17 09:00:01;;;;;;;16.38;10.98;;;22.40;99.90;;;;;;5059263;28;20064;-78
2023/09/17 09:02:35;;;;;;;20.33;11.65;;;22.50;99.90;;;;;;5018612;28;20179;-77
2023/09/17 09:05:03;;;;;;;22.10;11.38;;;22.60;99.90;;;;;;5028051;28;20495;-79
2023/09/17 09:07:31;;;;;;;19.48;11.75;;;22.60;99.90;;;;;;5021711;28;20052;-77
2023/09/17 09:10:00;;;;;;;18.13;11.65;;;22.60;99.90;;;;;;5019071;28;20055;-78
2023/09/17 09:12:27;;;;;;;16.30;11.88;;;22.60;99.90;;;;;;5020303;28;20388;-81
2023/09/17 09:14:57;;;;;;;18.25;11.98;;;22.70;99.90;;;;;;5040555;28;20041;-80
2023/09/17 09:17:25;;;;;;;15.93;11.23;;;22.80;99.90;;;;;;5014217;28;20056;-78
2023/09/17 09:19:55;;;;;;;15.68;10.43;;;22.90;99.90;;;;;;5030272;28;20218;-82
2023/09/17 09:22:25;;;;;;;17.67;11.27;;;23.00;99.90;;;;;;5027557;28;20736;-81
2023/09/17 09:24:52;;;;;;;16.70;11.00;;;23.10;99.90;;;;;;5021016;28;20187;-80
2023/09/17 09:27:19;;;;;;;14.57;10.10;;;23.20;99.90;;;;;;5015364;28;20658;-83
2023/09/17 09:29:47;;;;;;;14.57;9.77;;;23.30;99.90;;;;;;5036601;28;20047;-81
2023/09/17 09:32:17;;;;;;;16.75;10.82;;;23.30;99.90;;;;;;5023147;28;20129;-78
2023/09/17 09:34:47;;;;;;;14.77;9.43;;;23.40;99.90;;;;;;5033507;28;20049;-82
2023/09/17 09:37:14;;;;;;;16.35;11.68;;;23.40;99.90;;;;;;5035045;28;20071;-80
2023/09/17 09:39:42;;;;;;;13.18;9.57;;;23.50;99.90;;;;;;5028890;28;20062;-78
2023/09/17 09:42:11;;;;;;;14.02;9.98;;;23.60;99.90;;;;;;5034418;28;20627;-82
2023/09/17 09:44:39;;;;;;;14.15;9.32;;;23.50;99.90;;;;;;5029358;28;20819;-77
2023/09/17 09:47:06;;;;;;;13.73;9.25;;;23.50;99.90;;;;;;5036989;28;20168;-78
2023/09/17 09:49:41;;;;;;;12.27;9.52;;;23.60;99.90;;;;;;5029059;28;20415;-77
2023/09/17 09:52:10;;;;;;;12.32;8.85;;;23.60;99.90;;;;;;5011684;28;22329;-79
2023/09/17 09:54:37;;;;;;;12.93;8.20;;;23.60;99.90;;;;;;5029496;28;20044;-80
2023/09/17 09:57:05;;;;;;;13.82;8.80;;;23.80;99.90;;;;;;5022375;28;20052;-81
2023/09/17 09:59:36;;;;;;;11.63;8.48;;;23.80;99.90;;;;;;5024384;28;22549;-81
2023/09/17 10:02:04;;;;;;;11.90;8.48;;;23.80;99.90;;;;;;5021577;28;20059;-79
2023/09/17 10:04:37;;;;;;;13.15;8.98;;;24.00;99.90;;;;;;5036150;28;20721;-78
2023/09/17 10:07:07;;;;;;;12.35;8.70;;;24.00;99.90;;;;;;5051662;28;20057;-81
2023/09/17 10:09:35;;;;;;;12.52;8.95;;;24.10;99.90;;;;;;5033884;28;20049;-81
2023/09/17 10:12:04;;;;;;;11.10;8.13;;;24.10;99.90;;;;;;5024083;28;20824;-80
2023/09/17 10:14:35;;;;;;;13.65;9.60;;;24.20;99.90;;;;;;5037568;28;20131;-81
2023/09/17 10:17:10;;;;;;;12.60;9.13;;;24.20;99.90;;;;;;5041533;28;20063;-79
2023/09/17 10:19:38;;;;;;;12.05;9.02;;;24.30;99.90;;;;;;5030218;28;20075;-80
2023/09/17 10:22:09;;;;;;;16.45;10.20;;;24.30;99.90;;;;;;5053542;28;20072;-79
2023/09/17 10:24:37;;;;;;;13.13;9.00;;;24.40;99.90;;;;;;5038033;28;20071;-79
2023/09/17 10:27:06;;;;;;;12.02;9.90;;;24.50;99.90;;;;;;5036058;28;20604;-77
2023/09/17 10:29:35;;;;;;;10.48;8.27;;;24.60;99.90;;;;;;5031046;28;20048;-77
2023/09/17 10:32:03;;;;;;;11.75;8.70;;;24.40;99.60;;;;;;5032970;28;20040;-79
2023/09/17 10:34:35;;;;;;;12.23;8.68;;;24.60;99.50;;;;;;5031691;28;20039;-80
2023/09/17 10:37:04;;;;;;;13.10;8.95;;;24.70;98.60;;;;;;5048474;28;20042;-80
2023/09/17 10:39:33;;;;;;;12.02;8.90;;;24.70;99.40;;;;;;5057433;28;20045;-78
2023/09/17 10:42:02;;;;;;;11.95;8.48;;;24.70;98.40;;;;;;5065770;28;20053;-78
2023/09/17 10:44:36;;;;;;;10.95;7.90;;;24.80;98.00;;;;;;5045500;28;20064;-81
2023/09/17 10:47:09;;;;;;;10.27;8.52;;;24.80;97.90;;;;;;5064520;28;20589;-79
2023/09/17 10:49:39;;;;;;;11.75;8.35;;;24.90;97.20;;;;;;5059880;28;20127;-81
2023/09/17 10:52:07;;;;;;;10.15;7.88;;;25.00;95.80;;;;;;5058818;28;20041;-80
2023/09/17 10:54:35;;;;;;;9.98;8.07;;;25.00;95.90;;;;;;5053571;28;20044;-79
2023/09/17 10:57:13;;;;;;;12.48;8.88;;;25.00;96.90;;;;;;5062733;28;20051;-79
2023/09/17 10:59:40;;;;;;;12.25;9.55;;;25.00;96.60;;;;;;5062940;28;21057;-78
2023/09/17 11:02:09;;;;;;;12.50;8.82;;;24.90;96.30;;;;;;5052013;28;22849;-79
2023/09/17 11:04:38;;;;;;;10.27;8.77;;;24.80;96.70;;;;;;5065528;28;20036;-79
2023/09/17 11:07:07;;;;;;;12.65;8.88;;;24.80;96.80;;;;;;5045150;28;20055;-81
2023/09/17 11:09:34;;;;;;;12.18;9.90;;;25.00;96.60;;;;;;5064145;28;20089;-79
2023/09/17 11:12:03;;;;;;;11.45;9.30;;;24.90;95.80;;;;;;5057303;28;20036;-77
2023/09/17 11:14:30;;;;;;;12.98;9.43;;;24.60;96.10;;;;;;5063245;28;20068;-80
2023/09/17 11:16:58;;;;;;;12.50;9.98;;;24.50;96.20;;;;;;5046560;28;20500;-79
2023/09/17 11:19:25;;;;;;;17.42;10.05;;;24.70;96.40;;;;;;5063360;28;20127;-80
2023/09/17 11:22:02;;;;;;;12.95;9.68;;;25.00;96.40;;;;;;5056215;28;20515;-78
2023/09/17 11:24:31;;;;;;;11.38;9.25;;;24.70;95.30;;;;;;5057236;28;20051;-81
2023/09/17 11:27:04;;;;;;;12.13;8.88;;;24.60;96.40;;;;;;5055415;28;20499;-83
2023/09/17 11:29:43;;;;;;;11.93;9.80;;;24.80;96.80;;;;;;5044675;28;20048;-81
2023/09/17 11:32:13;;;;;;;11.73;9.80;;;25.10;95.80;;;;;;5063040;28;20037;-78
2023/09/17 11:34:43;;;;;;;11.85;9.18;;;25.10;94.70;;;;;;5056752;28;20483;-79
2023/09/17 11:37:15;;;;;;;12.45;9.70;;;25.10;94.60;;;;;;5076669;28;20568;-81
2023/09/17 11:39:50;;;;;;;12.52;9.13;;;25.00;95.40;;;;;;5054341;28;20060;-80
2023/09/17 11:42:22;;;;;;;12.55;8.52;;;25.00;94.90;;;;;;5061202;28;20056;-79
2023/09/17 11:44:52;;;;;;;13.02;9.25;;;25.20;95.00;;;;;;5046675;28;20053;-80
2023/09/17 11:47:20;;;;;;;9.45;8.30;;;25.40;93.90;;;;;;5071734;28;20063;-79
2023/09/17 11:49:50;;;;;;;10.77;7.82;;;25.40;93.90;;;;;;5056838;28;20910;-80
2023/09/17 11:52:17;;;;;;;10.07;7.60;;;25.40;93.60;;;;;;5055974;28;20045;-79
2023/09/17 11:54:50;;;;;;;9.50;7.53;;;25.50;93.70;;;;;;5045697;28;20048;-78
2023/09/17 11:57:25;;;;;;;9.50;7.72;;;25.60;93.20;;;;;;5046967;28;20044;-81
2023/09/17 11:59:58;;;;;;;12.10;7.70;;;25.60;92.60;;;;;;5061383;28;20110;-81
2023/09/17 12:02:27;;;;;;;8.95;7.13;;;25.80;92.20;;;;;;5056997;28;20471;-84
2023/09/17 12:04:56;;;;;;;12.32;6.82;;;25.70;91.20;;;;;;5044020;28;20045;-80
2023/09/17 12:07:25;;;;;;;10.00;6.90;;;25.70;91.30;;;;;;5063814;28;20075;-81
2023/09/17 12:12:25;;;;;;;;;;;25.40;91.50;;;;;;5058218;28;20068;-79
2023/09/17 12:14:53;;;;;;;10.52;8.25;;;25.10;91.40;;;;;;5061543;28;20011;-79
2023/09/17 12:17:21;;;;;;;10.25;7.57;;;25.00;91.80;;;;;;5056999;28;20071;-81
2023/09/17 12:19:59;;;;;;;10.00;7.93;;;24.90;92.80;;;;;;5063718;28;20072;-80
2023/09/17 12:22:28;;;;;;;11.77;8.75;;;25.00;92.10;;;;;;5052666;28;20132;-79
2023/09/17 12:25:03;;;;;;;9.90;8.50;;;25.20;92.20;;;;;;5058335;28;20051;-78
2023/09/17 12:27:37;;;;;;;10.43;8.23;;;25.30;92.70;;;;;;5069483;28;20044;-82
2023/09/17 12:30:08;;;;;;;11.20;8.52;;;25.40;92.80;;;;;;5054741;28;20041;-79
2023/09/17 12:32:36;;;;;;;10.57;9.30;;;25.30;92.20;;;;;;5054184;28;20124;-82
2023/09/17 12:35:06;;;;;;;10.95;8.63;;;25.30;92.30;;;;;;5063690;28;20036;-79
2023/09/17 12:37:34;;;;;;;10.68;8.52;;;25.20;92.30;;;;;;5048654;28;20052;-81
2023/09/17 12:40:02;;;;;;;11.93;8.80;;;25.10;92.20;;;;;;5070291;28;20435;-78
2023/09/17 12:42:29;;;;;;;10.38;8.43;;;25.00;91.80;;;;;;5054178;28;20906;-81
2023/09/17 12:44:57;;;;;;;10.98;8.60;;;25.00;92.50;;;;;;5055226;28;20496;-79
2023/09/17 12:47:26;;;;;;;9.38;7.70;;;25.10;92.70;;;;;;5047332;28;20063;-79
2023/09/17 12:49:54;;;;;;;10.38;8.38;;;25.20;92.40;;;;;;5043329;28;20742;-77
2023/09/17 12:52:23;;;;;;;12.77;8.48;;;25.30;92.50;;;;;;5039881;28;20048;-79